sensor_id;sensor_type;location;lat;lon;timestamp;P1;durP1;ratioP1;P2;durP2;ratioP2
12601;SDS011;30282;16.436;99.370;2023-02-28T00:01:58;266.53;;;163.83;;
12601;SDS011;30282;16.436;99.370;2023-02-28T00:04:27;251.10;;;172.17;;
12601;SDS011;30282;16.436;99.370;2023-02-28T00:07:01;228.50;;;163.83;;
12601;SDS011;30282;16.436;99.370;2023-02-28T00:09:34;234.17;;;160.70;;
12601;SDS011;30282;16.436;99.370;2023-02-28T00:12:14;220.13;;;153.93;;
12601;SDS011;30282;16.436;99.370;2023-02-28T00:14:49;231.93;;;164.23;;
12601;SDS011;30282;16.436;99.370;2023-02-28T00:17:23;221.13;;;159.30;;
12601;SDS011;30282;16.436;99.370;2023-02-28T00:19:52;229.07;;;161.80;;
12601;SDS011;30282;16.436;99.370;2023-02-28T00:22:23;239.20;;;163.87;;
12601;SDS011;30282;16.436;99.370;2023-02-28T00:24:51;239.47;;;168.80;;
12601;SDS011;30282;16.436;99.370;2023-02-28T00:27:20;235.97;;;164.63;;
12601;SDS011;30282;16.436;99.370;2023-02-28T00:29:49;253.20;;;174.20;;
12601;SDS011;30282;16.436;99.370;2023-02-28T00:32:19;238.23;;;168.80;;
12601;SDS011;30282;16.436;99.370;2023-02-28T00:34:48;262.00;;;174.27;;
12601;SDS011;30282;16.436;99.370;2023-02-28T00:37:18;235.43;;;169.30;;
12601;SDS011;30282;16.436;99.370;2023-02-28T00:39:48;232.00;;;157.53;;
12601;SDS011;30282;16.436;99.370;2023-02-28T00:42:17;227.40;;;155.20;;
12601;SDS011;30282;16.436;99.370;2023-02-28T00:44:46;222.50;;;154.57;;
12601;SDS011;30282;16.436;99.370;2023-02-28T00:47:15;231.00;;;154.97;;
12601;SDS011;30282;16.436;99.370;2023-02-28T00:49:44;223.03;;;151.97;;
12601;SDS011;30282;16.436;99.370;2023-02-28T00:52:13;223.37;;;154.37;;
12601;SDS011;30282;16.436;99.370;2023-02-28T00:54:42;294.67;;;153.03;;
12601;SDS011;30282;16.436;99.370;2023-02-28T00:57:12;229.03;;;147.50;;
12601;SDS011;30282;16.436;99.370;2023-02-28T00:59:41;231.63;;;148.40;;
12601;SDS011;30282;16.436;99.370;2023-02-28T01:02:10;213.03;;;148.07;;
12601;SDS011;30282;16.436;99.370;2023-02-28T01:04:39;209.00;;;144.47;;
12601;SDS011;30282;16.436;99.370;2023-02-28T01:07:08;238.30;;;151.90;;
12601;SDS011;30282;16.436;99.370;2023-02-28T01:09:37;234.33;;;146.37;;
12601;SDS011;30282;16.436;99.370;2023-02-28T01:12:06;219.57;;;143.07;;
12601;SDS011;30282;16.436;99.370;2023-02-28T01:14:46;217.70;;;142.60;;
12601;SDS011;30282;16.436;99.370;2023-02-28T01:17:15;201.40;;;138.80;;
12601;SDS011;30282;16.436;99.370;2023-02-28T01:19:44;190.00;;;135.30;;
12601;SDS011;30282;16.436;99.370;2023-02-28T01:22:13;199.37;;;134.47;;
12601;SDS011;30282;16.436;99.370;2023-02-28T01:24:42;190.50;;;133.00;;
12601;SDS011;30282;16.436;99.370;2023-02-28T01:27:11;181.50;;;130.43;;
12601;SDS011;30282;16.436;99.370;2023-02-28T01:29:40;184.20;;;124.93;;
12601;SDS011;30282;16.436;99.370;2023-02-28T01:32:10;177.63;;;126.50;;
12601;SDS011;30282;16.436;99.370;2023-02-28T01:34:39;192.60;;;129.43;;
12601;SDS011;30282;16.436;99.370;2023-02-28T01:37:08;172.80;;;124.30;;
12601;SDS011;30282;16.436;99.370;2023-02-28T01:39:37;181.73;;;125.10;;
12601;SDS011;30282;16.436;99.370;2023-02-28T01:42:08;180.77;;;123.27;;
12601;SDS011;30282;16.436;99.370;2023-02-28T01:44:58;179.67;;;122.27;;
12601;SDS011;30282;16.436;99.370;2023-02-28T01:47:43;184.80;;;127.93;;
12601;SDS011;30282;16.436;99.370;2023-02-28T01:50:13;195.13;;;129.37;;
12601;SDS011;30282;16.436;99.370;2023-02-28T01:52:45;185.50;;;127.00;;
12601;SDS011;30282;16.436;99.370;2023-02-28T01:55:16;181.87;;;123.40;;
12601;SDS011;30282;16.436;99.370;2023-02-28T01:57:48;181.67;;;125.13;;
12601;SDS011;30282;16.436;99.370;2023-02-28T02:00:20;185.80;;;127.10;;
12601;SDS011;30282;16.436;99.370;2023-02-28T02:02:55;167.63;;;119.23;;
12601;SDS011;30282;16.436;99.370;2023-02-28T02:05:27;164.37;;;113.83;;
12601;SDS011;30282;16.436;99.370;2023-02-28T02:08:01;146.50;;;101.77;;
12601;SDS011;30282;16.436;99.370;2023-02-28T02:10:33;155.73;;;102.13;;
12601;SDS011;30282;16.436;99.370;2023-02-28T02:13:16;163.37;;;110.67;;
12601;SDS011;30282;16.436;99.370;2023-02-28T02:16:00;151.07;;;107.40;;
12601;SDS011;30282;16.436;99.370;2023-02-28T02:18:38;149.30;;;105.67;;
12601;SDS011;30282;16.436;99.370;2023-02-28T02:21:21;165.73;;;105.97;;
12601;SDS011;30282;16.436;99.370;2023-02-28T02:24:08;166.87;;;104.93;;
12601;SDS011;30282;16.436;99.370;2023-02-28T02:26:56;151.97;;;102.23;;
12601;SDS011;30282;16.436;99.370;2023-02-28T02:32:54;146.47;;;95.30;;
12601;SDS011;30282;16.436;99.370;2023-02-28T02:35:40;136.47;;;91.70;;
12601;SDS011;30282;16.436;99.370;2023-02-28T02:38:18;125.30;;;86.20;;
12601;SDS011;30282;16.436;99.370;2023-02-28T02:40:56;124.47;;;85.40;;
12601;SDS011;30282;16.436;99.370;2023-02-28T02:43:29;131.50;;;92.27;;
12601;SDS011;30282;16.436;99.370;2023-02-28T02:46:04;137.40;;;92.30;;
12601;SDS011;30282;16.436;99.370;2023-02-28T02:48:38;123.40;;;90.03;;
12601;SDS011;30282;16.436;99.370;2023-02-28T02:51:11;119.37;;;88.00;;
12601;SDS011;30282;16.436;99.370;2023-02-28T02:53:45;125.40;;;89.67;;
12601;SDS011;30282;16.436;99.370;2023-02-28T02:56:17;115.27;;;85.10;;
12601;SDS011;30282;16.436;99.370;2023-02-28T02:58:50;120.27;;;85.20;;
12601;SDS011;30282;16.436;99.370;2023-02-28T03:01:22;129.20;;;91.70;;
12601;SDS011;30282;16.436;99.370;2023-02-28T03:03:55;122.50;;;86.40;;
12601;SDS011;30282;16.436;99.370;2023-02-28T03:06:27;256.27;;;159.90;;
12601;SDS011;30282;16.436;99.370;2023-02-28T03:08:56;286.30;;;183.53;;
12601;SDS011;30282;16.436;99.370;2023-02-28T03:11:27;140.93;;;97.50;;
12601;SDS011;30282;16.436;99.370;2023-02-28T03:14:00;121.27;;;88.07;;
12601;SDS011;30282;16.436;99.370;2023-02-28T03:16:45;119.47;;;89.73;;
12601;SDS011;30282;16.436;99.370;2023-02-28T03:19:31;127.93;;;90.30;;
12601;SDS011;30282;16.436;99.370;2023-02-28T03:22:17;132.47;;;77.60;;
12601;SDS011;30282;16.436;99.370;2023-02-28T03:25:01;112.23;;;77.00;;
12601;SDS011;30282;16.436;99.370;2023-02-28T03:27:36;106.70;;;75.67;;
12601;SDS011;30282;16.436;99.370;2023-02-28T03:30:10;115.83;;;77.67;;
12601;SDS011;30282;16.436;99.370;2023-02-28T03:32:49;99.20;;;69.57;;
12601;SDS011;30282;16.436;99.370;2023-02-28T03:35:23;101.67;;;74.80;;
12601;SDS011;30282;16.436;99.370;2023-02-28T03:37:58;98.37;;;71.23;;
12601;SDS011;30282;16.436;99.370;2023-02-28T03:40:33;89.50;;;64.60;;
12601;SDS011;30282;16.436;99.370;2023-02-28T03:43:07;95.60;;;60.40;;
12601;SDS011;30282;16.436;99.370;2023-02-28T03:45:40;79.63;;;60.40;;
12601;SDS011;30282;16.436;99.370;2023-02-28T03:48:12;88.93;;;61.53;;
12601;SDS011;30282;16.436;99.370;2023-02-28T03:50:45;90.73;;;62.73;;
12601;SDS011;30282;16.436;99.370;2023-02-28T03:53:19;99.70;;;62.73;;
12601;SDS011;30282;16.436;99.370;2023-02-28T03:55:52;83.63;;;60.70;;
12601;SDS011;30282;16.436;99.370;2023-02-28T03:58:25;89.23;;;66.87;;
12601;SDS011;30282;16.436;99.370;2023-02-28T04:00:59;86.80;;;58.17;;
12601;SDS011;30282;16.436;99.370;2023-02-28T04:03:35;87.80;;;58.93;;
12601;SDS011;30282;16.436;99.370;2023-02-28T04:06:05;92.57;;;62.40;;
12601;SDS011;30282;16.436;99.370;2023-02-28T04:08:42;59.80;;;45.23;;
12601;SDS011;30282;16.436;99.370;2023-02-28T04:11:14;66.90;;;49.67;;
12601;SDS011;30282;16.436;99.370;2023-02-28T04:13:47;71.27;;;50.80;;
12601;SDS011;30282;16.436;99.370;2023-02-28T04:16:16;84.57;;;60.77;;
12601;SDS011;30282;16.436;99.370;2023-02-28T04:18:45;73.03;;;53.83;;
12601;SDS011;30282;16.436;99.370;2023-02-28T04:21:14;60.87;;;44.97;;
12601;SDS011;30282;16.436;99.370;2023-02-28T04:23:47;60.80;;;43.73;;
12601;SDS011;30282;16.436;99.370;2023-02-28T04:26:16;68.83;;;43.13;;
12601;SDS011;30282;16.436;99.370;2023-02-28T04:28:45;71.33;;;51.20;;
12601;SDS011;30282;16.436;99.370;2023-02-28T04:31:14;69.70;;;51.20;;
12601;SDS011;30282;16.436;99.370;2023-02-28T04:33:43;74.83;;;52.73;;
12601;SDS011;30282;16.436;99.370;2023-02-28T04:36:12;72.50;;;52.63;;
12601;SDS011;30282;16.436;99.370;2023-02-28T04:38:43;71.90;;;51.97;;
12601;SDS011;30282;16.436;99.370;2023-02-28T04:41:14;67.27;;;53.50;;
12601;SDS011;30282;16.436;99.370;2023-02-28T04:43:44;72.63;;;54.90;;
12601;SDS011;30282;16.436;99.370;2023-02-28T04:46:12;69.07;;;54.10;;
12601;SDS011;30282;16.436;99.370;2023-02-28T04:48:41;78.63;;;54.50;;
12601;SDS011;30282;16.436;99.370;2023-02-28T04:51:11;74.93;;;50.87;;
12601;SDS011;30282;16.436;99.370;2023-02-28T04:53:41;66.03;;;52.53;;
12601;SDS011;30282;16.436;99.370;2023-02-28T04:56:11;60.87;;;48.20;;
12601;SDS011;30282;16.436;99.370;2023-02-28T04:58:43;64.43;;;51.33;;
12601;SDS011;30282;16.436;99.370;2023-02-28T05:01:22;75.00;;;51.33;;
12601;SDS011;30282;16.436;99.370;2023-02-28T05:03:54;63.57;;;50.00;;
12601;SDS011;30282;16.436;99.370;2023-02-28T05:06:24;66.83;;;49.03;;
12601;SDS011;30282;16.436;99.370;2023-02-28T05:08:54;70.07;;;48.10;;
12601;SDS011;30282;16.436;99.370;2023-02-28T05:11:25;57.40;;;44.63;;
12601;SDS011;30282;16.436;99.370;2023-02-28T05:14:00;71.00;;;46.10;;
12601;SDS011;30282;16.436;99.370;2023-02-28T05:16:29;55.60;;;43.13;;
12601;SDS011;30282;16.436;99.370;2023-02-28T05:18:58;57.13;;;42.93;;
12601;SDS011;30282;16.436;99.370;2023-02-28T05:21:28;51.00;;;33.83;;
12601;SDS011;30282;16.436;99.370;2023-02-28T05:23:58;61.20;;;37.60;;
12601;SDS011;30282;16.436;99.370;2023-02-28T05:26:29;49.33;;;32.20;;
12601;SDS011;30282;16.436;99.370;2023-02-28T05:29:01;44.70;;;33.90;;
12601;SDS011;30282;16.436;99.370;2023-02-28T05:31:30;57.57;;;43.33;;
12601;SDS011;30282;16.436;99.370;2023-02-28T05:33:59;56.20;;;42.37;;
12601;SDS011;30282;16.436;99.370;2023-02-28T05:36:29;65.77;;;45.90;;
12601;SDS011;30282;16.436;99.370;2023-02-28T05:38:58;55.03;;;43.70;;
12601;SDS011;30282;16.436;99.370;2023-02-28T05:41:30;61.90;;;46.33;;
12601;SDS011;30282;16.436;99.370;2023-02-28T05:43:59;64.63;;;51.07;;
12601;SDS011;30282;16.436;99.370;2023-02-28T05:46:28;66.73;;;52.80;;
12601;SDS011;30282;16.436;99.370;2023-02-28T05:48:57;73.10;;;53.90;;
12601;SDS011;30282;16.436;99.370;2023-02-28T05:51:29;68.60;;;52.93;;
12601;SDS011;30282;16.436;99.370;2023-02-28T05:54:00;69.67;;;55.33;;
12601;SDS011;30282;16.436;99.370;2023-02-28T05:56:31;68.27;;;51.20;;
12601;SDS011;30282;16.436;99.370;2023-02-28T05:59:06;57.17;;;46.90;;
12601;SDS011;30282;16.436;99.370;2023-02-28T06:01:36;61.30;;;49.10;;
12601;SDS011;30282;16.436;99.370;2023-02-28T06:04:06;62.33;;;49.37;;
12601;SDS011;30282;16.436;99.370;2023-02-28T06:06:35;64.53;;;49.43;;
12601;SDS011;30282;16.436;99.370;2023-02-28T06:09:04;63.50;;;47.20;;
12601;SDS011;30282;16.436;99.370;2023-02-28T06:11:35;57.63;;;50.10;;
12601;SDS011;30282;16.436;99.370;2023-02-28T06:14:04;62.80;;;50.60;;
12601;SDS011;30282;16.436;99.370;2023-02-28T06:16:34;69.13;;;51.40;;
12601;SDS011;30282;16.436;99.370;2023-02-28T06:19:03;66.67;;;48.60;;
12601;SDS011;30282;16.436;99.370;2023-02-28T06:21:32;65.10;;;48.40;;
12601;SDS011;30282;16.436;99.370;2023-02-28T06:24:01;57.40;;;47.23;;
12601;SDS011;30282;16.436;99.370;2023-02-28T06:26:30;57.80;;;47.77;;
12601;SDS011;30282;16.436;99.370;2023-02-28T06:29:01;67.13;;;50.07;;
12601;SDS011;30282;16.436;99.370;2023-02-28T06:31:30;58.33;;;46.67;;
12601;SDS011;30282;16.436;99.370;2023-02-28T06:33:59;61.60;;;49.00;;
12601;SDS011;30282;16.436;99.370;2023-02-28T06:36:28;60.27;;;49.40;;
12601;SDS011;30282;16.436;99.370;2023-02-28T06:38:57;60.70;;;50.13;;
12601;SDS011;30282;16.436;99.370;2023-02-28T06:41:26;60.93;;;48.00;;
12601;SDS011;30282;16.436;99.370;2023-02-28T06:43:55;55.47;;;46.17;;
12601;SDS011;30282;16.436;99.370;2023-02-28T06:46:26;54.40;;;44.77;;
12601;SDS011;30282;16.436;99.370;2023-02-28T06:48:54;57.60;;;48.07;;
12601;SDS011;30282;16.436;99.370;2023-02-28T06:51:24;64.53;;;47.77;;
12601;SDS011;30282;16.436;99.370;2023-02-28T06:53:53;64.40;;;44.93;;
12601;SDS011;30282;16.436;99.370;2023-02-28T06:56:22;74.23;;;48.47;;
12601;SDS011;30282;16.436;99.370;2023-02-28T06:58:51;58.93;;;45.83;;
12601;SDS011;30282;16.436;99.370;2023-02-28T07:01:20;69.27;;;46.03;;
12601;SDS011;30282;16.436;99.370;2023-02-28T07:03:51;72.23;;;45.40;;
12601;SDS011;30282;16.436;99.370;2023-02-28T07:06:20;57.90;;;46.23;;
12601;SDS011;30282;16.436;99.370;2023-02-28T07:08:50;67.83;;;46.80;;
12601;SDS011;30282;16.436;99.370;2023-02-28T07:11:19;61.90;;;44.57;;
12601;SDS011;30282;16.436;99.370;2023-02-28T07:13:51;64.50;;;47.27;;
12601;SDS011;30282;16.436;99.370;2023-02-28T07:16:20;54.60;;;44.57;;
12601;SDS011;30282;16.436;99.370;2023-02-28T07:18:53;53.30;;;43.07;;
12601;SDS011;30282;16.436;99.370;2023-02-28T07:21:22;56.60;;;44.93;;
12601;SDS011;30282;16.436;99.370;2023-02-28T07:23:51;54.93;;;42.90;;
12601;SDS011;30282;16.436;99.370;2023-02-28T07:26:20;59.50;;;45.80;;
12601;SDS011;30282;16.436;99.370;2023-02-28T07:28:49;54.60;;;43.20;;
12601;SDS011;30282;16.436;99.370;2023-02-28T07:31:18;51.10;;;44.27;;
12601;SDS011;30282;16.436;99.370;2023-02-28T07:33:48;54.00;;;42.97;;
12601;SDS011;30282;16.436;99.370;2023-02-28T07:36:18;51.97;;;41.60;;
12601;SDS011;30282;16.436;99.370;2023-02-28T07:38:47;53.30;;;40.70;;
12601;SDS011;30282;16.436;99.370;2023-02-28T07:41:17;53.20;;;41.00;;
12601;SDS011;30282;16.436;99.370;2023-02-28T07:43:47;49.90;;;38.70;;
12601;SDS011;30282;16.436;99.370;2023-02-28T07:46:16;48.50;;;38.77;;
12601;SDS011;30282;16.436;99.370;2023-02-28T07:48:46;49.10;;;36.70;;
12601;SDS011;30282;16.436;99.370;2023-02-28T07:51:15;51.53;;;37.07;;
12601;SDS011;30282;16.436;99.370;2023-02-28T07:53:46;50.67;;;37.70;;
12601;SDS011;30282;16.436;99.370;2023-02-28T07:56:15;49.47;;;36.00;;
12601;SDS011;30282;16.436;99.370;2023-02-28T07:58:44;49.20;;;38.37;;
12601;SDS011;30282;16.436;99.370;2023-02-28T08:01:13;50.10;;;35.93;;
12601;SDS011;30282;16.436;99.370;2023-02-28T08:03:42;52.97;;;38.37;;
12601;SDS011;30282;16.436;99.370;2023-02-28T08:06:15;50.23;;;36.63;;
12601;SDS011;30282;16.436;99.370;2023-02-28T08:08:46;44.83;;;35.63;;
12601;SDS011;30282;16.436;99.370;2023-02-28T08:11:16;44.63;;;35.97;;
12601;SDS011;30282;16.436;99.370;2023-02-28T08:13:45;49.13;;;35.07;;
12601;SDS011;30282;16.436;99.370;2023-02-28T08:16:14;42.90;;;34.90;;
12601;SDS011;30282;16.436;99.370;2023-02-28T08:18:47;49.57;;;39.37;;
12601;SDS011;30282;16.436;99.370;2023-02-28T08:21:18;55.13;;;39.37;;
12601;SDS011;30282;16.436;99.370;2023-02-28T08:23:48;64.17;;;48.50;;
12601;SDS011;30282;16.436;99.370;2023-02-28T08:26:17;55.80;;;43.77;;
12601;SDS011;30282;16.436;99.370;2023-02-28T08:28:47;53.80;;;41.87;;
12601;SDS011;30282;16.436;99.370;2023-02-28T08:31:16;54.90;;;40.83;;
12601;SDS011;30282;16.436;99.370;2023-02-28T08:33:46;51.53;;;39.60;;
12601;SDS011;30282;16.436;99.370;2023-02-28T08:36:19;57.50;;;41.37;;
12601;SDS011;30282;16.436;99.370;2023-02-28T08:38:48;81.03;;;50.90;;
12601;SDS011;30282;16.436;99.370;2023-02-28T08:41:17;55.57;;;42.70;;
12601;SDS011;30282;16.436;99.370;2023-02-28T08:43:46;56.47;;;42.20;;
12601;SDS011;30282;16.436;99.370;2023-02-28T08:46:15;294.87;;;159.63;;
12601;SDS011;30282;16.436;99.370;2023-02-28T08:48:44;64.80;;;49.10;;
12601;SDS011;30282;16.436;99.370;2023-02-28T08:51:14;85.30;;;63.00;;
12601;SDS011;30282;16.436;99.370;2023-02-28T08:53:53;67.33;;;49.27;;
12601;SDS011;30282;16.436;99.370;2023-02-28T08:56:23;59.43;;;44.17;;
12601;SDS011;30282;16.436;99.370;2023-02-28T08:58:53;49.27;;;41.53;;
12601;SDS011;30282;16.436;99.370;2023-02-28T09:01:23;51.20;;;40.47;;
12601;SDS011;30282;16.436;99.370;2023-02-28T09:03:54;61.23;;;43.70;;
12601;SDS011;30282;16.436;99.370;2023-02-28T09:06:25;61.53;;;41.97;;
12601;SDS011;30282;16.436;99.370;2023-02-28T09:08:57;52.63;;;40.70;;
12601;SDS011;30282;16.436;99.370;2023-02-28T09:11:26;51.80;;;41.53;;
12601;SDS011;30282;16.436;99.370;2023-02-28T09:13:55;54.70;;;41.13;;
12601;SDS011;30282;16.436;99.370;2023-02-28T09:16:26;52.53;;;41.67;;
12601;SDS011;30282;16.436;99.370;2023-02-28T09:18:55;57.33;;;41.90;;
12601;SDS011;30282;16.436;99.370;2023-02-28T09:21:24;55.50;;;43.17;;
12601;SDS011;30282;16.436;99.370;2023-02-28T09:23:53;53.90;;;44.10;;
12601;SDS011;30282;16.436;99.370;2023-02-28T09:26:24;52.57;;;43.13;;
12601;SDS011;30282;16.436;99.370;2023-02-28T09:28:54;55.20;;;42.93;;
12601;SDS011;30282;16.436;99.370;2023-02-28T09:31:25;60.23;;;45.10;;
12601;SDS011;30282;16.436;99.370;2023-02-28T09:33:55;54.80;;;41.93;;
12601;SDS011;30282;16.436;99.370;2023-02-28T09:36:27;56.40;;;42.00;;
12601;SDS011;30282;16.436;99.370;2023-02-28T09:38:56;48.27;;;41.67;;
12601;SDS011;30282;16.436;99.370;2023-02-28T09:41:27;52.50;;;42.43;;
12601;SDS011;30282;16.436;99.370;2023-02-28T09:44:05;60.50;;;45.20;;
12601;SDS011;30282;16.436;99.370;2023-02-28T09:46:40;61.70;;;46.07;;
12601;SDS011;30282;16.436;99.370;2023-02-28T09:49:16;58.33;;;47.97;;
12601;SDS011;30282;16.436;99.370;2023-02-28T09:51:55;72.43;;;45.63;;
12601;SDS011;30282;16.436;99.370;2023-02-28T09:54:29;62.60;;;46.10;;
12601;SDS011;30282;16.436;99.370;2023-02-28T09:57:19;58.67;;;46.43;;
12601;SDS011;30282;16.436;99.370;2023-02-28T10:00:06;62.67;;;46.30;;
12601;SDS011;30282;16.436;99.370;2023-02-28T10:02:53;59.47;;;49.60;;
12601;SDS011;30282;16.436;99.370;2023-02-28T10:05:56;68.57;;;51.67;;
12601;SDS011;30282;16.436;99.370;2023-02-28T10:08:32;69.80;;;50.90;;
12601;SDS011;30282;16.436;99.370;2023-02-28T10:11:09;62.03;;;51.20;;
12601;SDS011;30282;16.436;99.370;2023-02-28T10:14:01;71.23;;;52.37;;
12601;SDS011;30282;16.436;99.370;2023-02-28T10:16:35;72.00;;;54.50;;
12601;SDS011;30282;16.436;99.370;2023-02-28T10:19:23;65.93;;;51.90;;
12601;SDS011;30282;16.436;99.370;2023-02-28T10:22:00;69.90;;;56.00;;
12601;SDS011;30282;16.436;99.370;2023-02-28T10:24:33;80.23;;;56.80;;
12601;SDS011;30282;16.436;99.370;2023-02-28T10:27:10;73.40;;;56.40;;
12601;SDS011;30282;16.436;99.370;2023-02-28T10:29:44;73.50;;;58.37;;
12601;SDS011;30282;16.436;99.370;2023-02-28T10:32:15;79.90;;;59.93;;
12601;SDS011;30282;16.436;99.370;2023-02-28T10:34:49;94.03;;;58.83;;
12601;SDS011;30282;16.436;99.370;2023-02-28T10:37:20;77.63;;;59.40;;
12601;SDS011;30282;16.436;99.370;2023-02-28T10:39:49;75.87;;;59.57;;
12601;SDS011;30282;16.436;99.370;2023-02-28T10:42:20;82.53;;;58.93;;
12601;SDS011;30282;16.436;99.370;2023-02-28T10:47:51;72.87;;;57.27;;
12601;SDS011;30282;16.436;99.370;2023-02-28T10:50:28;78.63;;;60.10;;
12601;SDS011;30282;16.436;99.370;2023-02-28T10:53:15;85.90;;;60.17;;
12601;SDS011;30282;16.436;99.370;2023-02-28T10:56:00;93.97;;;61.30;;
12601;SDS011;30282;16.436;99.370;2023-02-28T10:58:31;90.43;;;67.10;;
12601;SDS011;30282;16.436;99.370;2023-02-28T11:01:15;110.93;;;74.53;;
12601;SDS011;30282;16.436;99.370;2023-02-28T11:03:46;123.17;;;83.47;;
12601;SDS011;30282;16.436;99.370;2023-02-28T11:06:16;119.60;;;85.63;;
12601;SDS011;30282;16.436;99.370;2023-02-28T11:08:48;153.33;;;105.93;;
12601;SDS011;30282;16.436;99.370;2023-02-28T11:11:21;185.50;;;125.73;;
12601;SDS011;30282;16.436;99.370;2023-02-28T11:13:56;166.10;;;120.10;;
12601;SDS011;30282;16.436;99.370;2023-02-28T11:16:33;160.63;;;115.60;;
12601;SDS011;30282;16.436;99.370;2023-02-28T11:19:04;154.50;;;115.20;;
12601;SDS011;30282;16.436;99.370;2023-02-28T11:21:55;206.73;;;140.87;;
12601;SDS011;30282;16.436;99.370;2023-02-28T11:24:26;235.23;;;157.27;;
12601;SDS011;30282;16.436;99.370;2023-02-28T11:26:57;243.03;;;151.50;;
12601;SDS011;30282;16.436;99.370;2023-02-28T11:29:27;219.87;;;143.40;;
12601;SDS011;30282;16.436;99.370;2023-02-28T11:32:03;204.40;;;134.10;;
12601;SDS011;30282;16.436;99.370;2023-02-28T11:34:41;194.90;;;129.63;;
12601;SDS011;30282;16.436;99.370;2023-02-28T11:37:11;194.73;;;128.23;;
12601;SDS011;30282;16.436;99.370;2023-02-28T11:39:43;150.70;;;104.13;;
12601;SDS011;30282;16.436;99.370;2023-02-28T11:42:17;190.20;;;122.13;;
12601;SDS011;30282;16.436;99.370;2023-02-28T11:45:03;144.00;;;99.13;;
12601;SDS011;30282;16.436;99.370;2023-02-28T11:47:44;133.13;;;87.97;;
12601;SDS011;30282;16.436;99.370;2023-02-28T11:50:34;144.07;;;92.00;;
12601;SDS011;30282;16.436;99.370;2023-02-28T11:53:16;143.47;;;95.47;;
12601;SDS011;30282;16.436;99.370;2023-02-28T11:55:58;136.10;;;93.90;;
12601;SDS011;30282;16.436;99.370;2023-02-28T11:58:33;161.97;;;114.47;;
12601;SDS011;30282;16.436;99.370;2023-02-28T12:01:18;164.00;;;105.93;;
12601;SDS011;30282;16.436;99.370;2023-02-28T12:04:14;139.83;;;101.47;;
12601;SDS011;30282;16.436;99.370;2023-02-28T12:06:53;137.80;;;95.40;;
12601;SDS011;30282;16.436;99.370;2023-02-28T12:09:40;226.03;;;122.17;;
12601;SDS011;30282;16.436;99.370;2023-02-28T12:12:22;398.30;;;226.67;;
12601;SDS011;30282;16.436;99.370;2023-02-28T12:15:11;357.40;;;205.60;;
12601;SDS011;30282;16.436;99.370;2023-02-28T12:17:55;328.13;;;181.43;;
12601;SDS011;30282;16.436;99.370;2023-02-28T12:20:38;288.97;;;175.20;;
12601;SDS011;30282;16.436;99.370;2023-02-28T12:23:22;148.50;;;99.80;;
12601;SDS011;30282;16.436;99.370;2023-02-28T12:26:11;118.87;;;83.00;;
12601;SDS011;30282;16.436;99.370;2023-02-28T12:28:47;121.90;;;82.90;;
12601;SDS011;30282;16.436;99.370;2023-02-28T12:31:21;109.63;;;75.63;;
12601;SDS011;30282;16.436;99.370;2023-02-28T12:33:55;104.97;;;78.03;;
12601;SDS011;30282;16.436;99.370;2023-02-28T12:36:29;112.23;;;78.00;;
12601;SDS011;30282;16.436;99.370;2023-02-28T12:39:01;106.33;;;74.63;;
12601;SDS011;30282;16.436;99.370;2023-02-28T12:41:34;109.80;;;78.73;;
12601;SDS011;30282;16.436;99.370;2023-02-28T12:44:09;116.33;;;78.57;;
12601;SDS011;30282;16.436;99.370;2023-02-28T12:46:44;106.73;;;75.87;;
12601;SDS011;30282;16.436;99.370;2023-02-28T12:49:16;111.57;;;79.07;;
12601;SDS011;30282;16.436;99.370;2023-02-28T12:51:53;197.17;;;84.13;;
12601;SDS011;30282;16.436;99.370;2023-02-28T12:54:23;121.17;;;79.07;;
12601;SDS011;30282;16.436;99.370;2023-02-28T12:56:58;122.97;;;76.70;;
12601;SDS011;30282;16.436;99.370;2023-02-28T12:59:35;139.00;;;75.97;;
12601;SDS011;30282;16.436;99.370;2023-02-28T13:05:24;123.07;;;74.13;;
12601;SDS011;30282;16.436;99.370;2023-02-28T13:08:15;103.10;;;76.20;;
12601;SDS011;30282;16.436;99.370;2023-02-28T13:10:56;104.87;;;74.90;;
12601;SDS011;30282;16.436;99.370;2023-02-28T13:13:26;117.60;;;80.07;;
12601;SDS011;30282;16.436;99.370;2023-02-28T13:16:01;130.93;;;86.60;;
12601;SDS011;30282;16.436;99.370;2023-02-28T13:18:33;149.60;;;90.60;;
12601;SDS011;30282;16.436;99.370;2023-02-28T13:21:05;168.07;;;96.77;;
12601;SDS011;30282;16.436;99.370;2023-02-28T13:30:00;156.60;;;95.20;;
12601;SDS011;30282;16.436;99.370;2023-02-28T13:33:05;157.10;;;85.00;;
12601;SDS011;30282;16.436;99.370;2023-02-28T13:36:09;132.77;;;90.47;;
12601;SDS011;30282;16.436;99.370;2023-02-28T13:38:51;143.53;;;93.73;;
12601;SDS011;30282;16.436;99.370;2023-02-28T13:44:09;144.43;;;99.00;;
12601;SDS011;30282;16.436;99.370;2023-02-28T13:49:52;159.17;;;101.77;;
12601;SDS011;30282;16.436;99.370;2023-02-28T13:52:22;160.43;;;100.13;;
12601;SDS011;30282;16.436;99.370;2023-02-28T13:55:02;170.03;;;103.80;;
12601;SDS011;30282;16.436;99.370;2023-02-28T13:58:00;171.40;;;105.63;;
12601;SDS011;30282;16.436;99.370;2023-02-28T14:03:47;157.70;;;104.67;;
12601;SDS011;30282;16.436;99.370;2023-02-28T14:06:39;161.47;;;105.50;;
12601;SDS011;30282;16.436;99.370;2023-02-28T14:09:18;160.80;;;105.83;;
12601;SDS011;30282;16.436;99.370;2023-02-28T14:11:51;153.00;;;103.33;;
12601;SDS011;30282;16.436;99.370;2023-02-28T14:17:24;139.60;;;98.50;;
12601;SDS011;30282;16.436;99.370;2023-02-28T14:19:53;154.23;;;99.33;;
12601;SDS011;30282;16.436;99.370;2023-02-28T14:22:33;148.07;;;98.03;;
12601;SDS011;30282;16.436;99.370;2023-02-28T14:25:22;150.77;;;100.87;;
12601;SDS011;30282;16.436;99.370;2023-02-28T14:28:01;145.83;;;94.03;;
12601;SDS011;30282;16.436;99.370;2023-02-28T14:33:41;150.73;;;100.23;;
12601;SDS011;30282;16.436;99.370;2023-02-28T14:36:23;155.70;;;105.27;;
12601;SDS011;30282;16.436;99.370;2023-02-28T14:38:59;158.57;;;102.47;;
12601;SDS011;30282;16.436;99.370;2023-02-28T14:41:34;148.73;;;101.60;;
12601;SDS011;30282;16.436;99.370;2023-02-28T14:44:13;145.90;;;99.97;;
12601;SDS011;30282;16.436;99.370;2023-02-28T14:46:46;132.23;;;92.17;;
12601;SDS011;30282;16.436;99.370;2023-02-28T14:49:20;141.07;;;90.97;;
12601;SDS011;30282;16.436;99.370;2023-02-28T14:52:01;140.63;;;88.90;;
12601;SDS011;30282;16.436;99.370;2023-02-28T14:54:39;124.57;;;84.60;;
12601;SDS011;30282;16.436;99.370;2023-02-28T14:57:20;118.20;;;82.07;;
12601;SDS011;30282;16.436;99.370;2023-02-28T14:59:57;124.13;;;84.37;;
12601;SDS011;30282;16.436;99.370;2023-02-28T15:02:31;131.87;;;85.20;;
12601;SDS011;30282;16.436;99.370;2023-02-28T15:05:19;120.33;;;89.07;;
12601;SDS011;30282;16.436;99.370;2023-02-28T15:08:09;135.10;;;95.30;;